sensor_id;sensor_type;location;lat;lon;timestamp;pressure;altitude;pressure_sealevel;temperature;humidity
47811;BME280;33575;52.600;7.318;2023-09-12T00:01:13;101154.53;;;22.00;97.76
47811;BME280;33575;52.600;7.318;2023-09-12T00:03:43;101146.42;;;22.07;97.15
47811;BME280;33575;52.600;7.318;2023-09-12T00:06:13;101149.56;;;22.15;97.10
47811;BME280;33575;52.600;7.318;2023-09-12T00:08:44;101135.80;;;22.05;98.24
47811;BME280;33575;52.600;7.318;2023-09-12T00:11:15;101120.80;;;21.88;98.90
47811;BME280;33575;52.600;7.318;2023-09-12T00:13:45;101110.02;;;21.79;98.90
47811;BME280;33575;52.600;7.318;2023-09-12T00:16:15;101117.92;;;21.83;98.29
47811;BME280;33575;52.600;7.318;2023-09-12T00:18:47;101110.59;;;21.90;97.61
47811;BME280;33575;52.600;7.318;2023-09-12T00:21:17;101105.67;;;22.00;96.72
47811;BME280;33575;52.600;7.318;2023-09-12T00:23:47;101112.25;;;22.10;96.46
47811;BME280;33575;52.600;7.318;2023-09-12T00:26:17;101118.32;;;22.16;96.33
47811;BME280;33575;52.600;7.318;2023-09-12T00:28:47;101116.87;;;22.22;95.41
47811;BME280;33575;52.600;7.318;2023-09-12T00:31:18;101111.55;;;22.28;95.27
47811;BME280;33575;52.600;7.318;2023-09-12T00:33:48;101108.09;;;22.31;94.99
47811;BME280;33575;52.600;7.318;2023-09-12T00:36:19;101107.29;;;22.37;94.56
47811;BME280;33575;52.600;7.318;2023-09-12T00:38:50;101100.35;;;22.37;95.24
47811;BME280;33575;52.600;7.318;2023-09-12T00:41:20;101105.31;;;22.38;94.61
47811;BME280;33575;52.600;7.318;2023-09-12T00:43:51;101119.29;;;22.39;94.79
47811;BME280;33575;52.600;7.318;2023-09-12T00:46:22;101126.58;;;22.39;94.81
47811;BME280;33575;52.600;7.318;2023-09-12T00:48:53;101137.53;;;22.40;94.49
47811;BME280;33575;52.600;7.318;2023-09-12T00:51:24;101141.53;;;22.39;94.53
47811;BME280;33575;52.600;7.318;2023-09-12T00:53:53;101157.28;;;22.28;96.06
47811;BME280;33575;52.600;7.318;2023-09-12T00:56:23;101161.23;;;22.04;97.30
47811;BME280;33575;52.600;7.318;2023-09-12T00:58:55;101153.95;;;21.97;97.26
47811;BME280;33575;52.600;7.318;2023-09-12T01:01:25;101141.28;;;21.75;98.26
47811;BME280;33575;52.600;7.318;2023-09-12T01:03:55;101112.41;;;21.70;98.23
47811;BME280;33575;52.600;7.318;2023-09-12T01:06:27;101081.10;;;21.74;97.41
47811;BME280;33575;52.600;7.318;2023-09-12T01:08:57;101057.66;;;21.82;96.66
47811;BME280;33575;52.600;7.318;2023-09-12T01:11:27;101025.95;;;21.89;96.12
47811;BME280;33575;52.600;7.318;2023-09-12T01:13:57;101015.56;;;21.90;95.98
47811;BME280;33575;52.600;7.318;2023-09-12T01:16:28;101054.47;;;21.88;96.35
47811;BME280;33575;52.600;7.318;2023-09-12T01:18:59;101046.28;;;21.91;95.82
47811;BME280;33575;52.600;7.318;2023-09-12T01:21:38;101020.95;;;21.94;95.60
47811;BME280;33575;52.600;7.318;2023-09-12T01:24:10;101023.93;;;21.97;95.45
47811;BME280;33575;52.600;7.318;2023-09-12T01:26:41;101029.05;;;21.99;95.42
47811;BME280;33575;52.600;7.318;2023-09-12T01:29:02;101045.06;;;22.01;95.29
47811;BME280;33575;52.600;7.318;2023-09-12T01:31:32;101049.19;;;22.00;95.22
47811;BME280;33575;52.600;7.318;2023-09-12T01:34:08;101039.47;;;21.99;95.32
47811;BME280;33575;52.600;7.318;2023-09-12T01:36:32;101050.87;;;22.00;95.51
47811;BME280;33575;52.600;7.318;2023-09-12T01:39:03;101056.55;;;22.01;95.84
47811;BME280;33575;52.600;7.318;2023-09-12T01:41:36;101047.39;;;21.98;96.42
47811;BME280;33575;52.600;7.318;2023-09-12T01:44:04;101058.35;;;22.02;95.34
47811;BME280;33575;52.600;7.318;2023-09-12T01:46:34;101058.00;;;22.04;95.38
47811;BME280;33575;52.600;7.318;2023-09-12T01:49:05;101065.65;;;22.07;95.26
47811;BME280;33575;52.600;7.318;2023-09-12T01:51:35;101074.97;;;22.10;94.86
47811;BME280;33575;52.600;7.318;2023-09-12T01:54:07;101091.52;;;22.11;94.80
47811;BME280;33575;52.600;7.318;2023-09-12T01:56:35;101108.21;;;22.11;94.94
47811;BME280;33575;52.600;7.318;2023-09-12T01:59:06;101125.52;;;22.09;94.86
47811;BME280;33575;52.600;7.318;2023-09-12T02:01:36;101129.31;;;22.05;95.20
47811;BME280;33575;52.600;7.318;2023-09-12T02:04:07;101113.04;;;22.02;95.78
47811;BME280;33575;52.600;7.318;2023-09-12T02:06:38;101100.97;;;22.02;95.62
47811;BME280;33575;52.600;7.318;2023-09-12T02:09:08;101095.49;;;22.01;95.34
47811;BME280;33575;52.600;7.318;2023-09-12T02:11:38;101082.98;;;21.99;95.47
47811;BME280;33575;52.600;7.318;2023-09-12T02:14:09;101077.91;;;21.98;95.38
47811;BME280;33575;52.600;7.318;2023-09-12T02:16:42;101074.47;;;21.98;95.46
47811;BME280;33575;52.600;7.318;2023-09-12T02:19:09;101066.28;;;22.00;95.54
47811;BME280;33575;52.600;7.318;2023-09-12T02:21:40;101053.55;;;22.02;95.50
47811;BME280;33575;52.600;7.318;2023-09-12T02:24:10;101049.54;;;22.05;95.04
47811;BME280;33575;52.600;7.318;2023-09-12T02:26:41;101040.59;;;22.03;95.33
47811;BME280;33575;52.600;7.318;2023-09-12T02:29:11;101030.94;;;22.01;95.29
47811;BME280;33575;52.600;7.318;2023-09-12T02:31:42;101029.60;;;22.03;94.69
47811;BME280;33575;52.600;7.318;2023-09-12T02:34:12;101030.24;;;22.04;94.60
47811;BME280;33575;52.600;7.318;2023-09-12T02:36:42;101028.92;;;22.05;94.63
47811;BME280;33575;52.600;7.318;2023-09-12T02:39:12;101025.92;;;22.06;94.73
47811;BME280;33575;52.600;7.318;2023-09-12T02:41:43;101022.60;;;22.04;94.68
47811;BME280;33575;52.600;7.318;2023-09-12T02:44:13;101020.17;;;22.02;94.71
47811;BME280;33575;52.600;7.318;2023-09-12T02:46:44;101017.58;;;22.00;94.75
47811;BME280;33575;52.600;7.318;2023-09-12T02:49:14;101021.21;;;22.01;94.16
47811;BME280;33575;52.600;7.318;2023-09-12T02:51:45;101022.45;;;21.98;93.95
47811;BME280;33575;52.600;7.318;2023-09-12T02:54:15;101023.43;;;21.95;94.19
47811;BME280;33575;52.600;7.318;2023-09-12T02:56:46;101024.42;;;21.94;94.45
47811;BME280;33575;52.600;7.318;2023-09-12T02:59:16;101028.28;;;21.95;93.85
47811;BME280;33575;52.600;7.318;2023-09-12T03:01:47;101033.83;;;21.92;93.57
47811;BME280;33575;52.600;7.318;2023-09-12T03:04:18;101033.76;;;21.90;93.48
47811;BME280;33575;52.600;7.318;2023-09-12T03:06:48;101030.58;;;21.89;93.23
47811;BME280;33575;52.600;7.318;2023-09-12T03:09:18;101024.11;;;21.87;93.03
47811;BME280;33575;52.600;7.318;2023-09-12T03:11:49;101022.40;;;21.87;93.07
47811;BME280;33575;52.600;7.318;2023-09-12T03:14:20;101024.98;;;21.88;92.88
47811;BME280;33575;52.600;7.318;2023-09-12T03:16:50;101019.29;;;21.83;93.41
47811;BME280;33575;52.600;7.318;2023-09-12T03:19:20;101009.94;;;21.78;93.46
47811;BME280;33575;52.600;7.318;2023-09-12T03:21:50;101010.30;;;21.77;93.12
47811;BME280;33575;52.600;7.318;2023-09-12T03:24:21;101010.51;;;21.73;93.26
47811;BME280;33575;52.600;7.318;2023-09-12T03:26:52;101010.16;;;21.71;92.92
47811;BME280;33575;52.600;7.318;2023-09-12T03:29:22;101016.10;;;21.71;93.10
47811;BME280;33575;52.600;7.318;2023-09-12T03:31:53;101015.06;;;21.73;92.71
47811;BME280;33575;52.600;7.318;2023-09-12T03:34:23;101019.05;;;21.70;92.56
47811;BME280;33575;52.600;7.318;2023-09-12T03:36:53;101021.44;;;21.69;92.78
47811;BME280;33575;52.600;7.318;2023-09-12T03:39:24;101020.85;;;21.68;92.88
47811;BME280;33575;52.600;7.318;2023-09-12T03:41:54;101022.41;;;21.67;92.78
47811;BME280;33575;52.600;7.318;2023-09-12T03:44:24;101023.62;;;21.67;92.52
47811;BME280;33575;52.600;7.318;2023-09-12T03:46:55;101023.43;;;21.67;92.75
47811;BME280;33575;52.600;7.318;2023-09-12T03:49:25;101022.59;;;21.66;92.81
47811;BME280;33575;52.600;7.318;2023-09-12T03:51:55;101018.12;;;21.63;93.06
47811;BME280;33575;52.600;7.318;2023-09-12T03:54:26;101018.65;;;21.60;93.31
47811;BME280;33575;52.600;7.318;2023-09-12T03:56:57;101022.12;;;21.59;93.13
47811;BME280;33575;52.600;7.318;2023-09-12T03:59:27;101025.07;;;21.59;92.81
47811;BME280;33575;52.600;7.318;2023-09-12T04:01:57;101033.09;;;21.54;93.16
47811;BME280;33575;52.600;7.318;2023-09-12T04:04:28;101033.59;;;21.51;93.37
47811;BME280;33575;52.600;7.318;2023-09-12T04:06:58;101024.33;;;21.50;93.79
47811;BME280;33575;52.600;7.318;2023-09-12T04:09:29;101026.93;;;21.50;93.26
47811;BME280;33575;52.600;7.318;2023-09-12T04:11:59;101029.07;;;21.49;93.06
47811;BME280;33575;52.600;7.318;2023-09-12T04:14:29;101034.14;;;21.49;93.33
47811;BME280;33575;52.600;7.318;2023-09-12T04:17:00;101038.28;;;21.47;92.90
47811;BME280;33575;52.600;7.318;2023-09-12T04:19:30;101042.82;;;21.42;92.98
47811;BME280;33575;52.600;7.318;2023-09-12T04:22:01;101045.98;;;21.40;93.35
47811;BME280;33575;52.600;7.318;2023-09-12T04:24:31;101045.79;;;21.41;93.33
47811;BME280;33575;52.600;7.318;2023-09-12T04:27:01;101047.00;;;21.43;92.83
47811;BME280;33575;52.600;7.318;2023-09-12T04:29:32;101049.07;;;21.42;92.86
47811;BME280;33575;52.600;7.318;2023-09-12T04:32:02;101054.44;;;21.41;92.84
47811;BME280;33575;52.600;7.318;2023-09-12T04:34:31;101053.52;;;21.42;93.50
47811;BME280;33575;52.600;7.318;2023-09-12T04:37:02;101049.07;;;21.41;93.63
47811;BME280;33575;52.600;7.318;2023-09-12T04:39:32;101047.31;;;21.40;93.42
47811;BME280;33575;52.600;7.318;2023-09-12T04:42:03;101049.58;;;21.36;93.13
47811;BME280;33575;52.600;7.318;2023-09-12T04:44:34;101050.68;;;21.33;93.26
47811;BME280;33575;52.600;7.318;2023-09-12T04:47:03;101051.28;;;21.33;93.44
47811;BME280;33575;52.600;7.318;2023-09-12T04:49:34;101058.29;;;21.32;93.12
47811;BME280;33575;52.600;7.318;2023-09-12T04:52:05;101066.61;;;21.34;92.97
47811;BME280;33575;52.600;7.318;2023-09-12T04:54:34;101064.30;;;21.34;93.54
47811;BME280;33575;52.600;7.318;2023-09-12T04:57:04;101057.23;;;21.33;93.68
47811;BME280;33575;52.600;7.318;2023-09-12T04:59:34;101055.78;;;21.33;93.90
47811;BME280;33575;52.600;7.318;2023-09-12T05:02:05;101052.28;;;21.31;93.60
47811;BME280;33575;52.600;7.318;2023-09-12T05:04:36;101047.68;;;21.27;93.74
47811;BME280;33575;52.600;7.318;2023-09-12T05:07:06;101044.36;;;21.26;93.33
47811;BME280;33575;52.600;7.318;2023-09-12T05:09:36;101048.39;;;21.23;93.29
47811;BME280;33575;52.600;7.318;2023-09-12T05:12:07;101046.50;;;21.19;93.78
47811;BME280;33575;52.600;7.318;2023-09-12T05:14:37;101040.58;;;21.18;93.58
47811;BME280;33575;52.600;7.318;2023-09-12T05:17:08;101034.54;;;21.17;93.78
47811;BME280;33575;52.600;7.318;2023-09-12T05:19:38;101035.02;;;21.18;93.35
47811;BME280;33575;52.600;7.318;2023-09-12T05:22:09;101038.92;;;21.21;93.01
47811;BME280;33575;52.600;7.318;2023-09-12T05:24:39;101042.35;;;21.23;93.21
47811;BME280;33575;52.600;7.318;2023-09-12T05:27:10;101041.91;;;21.20;94.30
47811;BME280;33575;52.600;7.318;2023-09-12T05:29:40;101039.92;;;21.08;95.03
47811;BME280;33575;52.600;7.318;2023-09-12T05:32:11;101040.73;;;21.01;95.57
47811;BME280;33575;52.600;7.318;2023-09-12T05:34:41;101047.88;;;20.99;95.53
47811;BME280;33575;52.600;7.318;2023-09-12T05:37:11;101060.72;;;20.98;95.74
47811;BME280;33575;52.600;7.318;2023-09-12T05:39:42;101064.38;;;20.97;95.94
47811;BME280;33575;52.600;7.318;2023-09-12T05:42:12;101061.53;;;20.95;96.14
47811;BME280;33575;52.600;7.318;2023-09-12T05:44:42;101066.79;;;20.97;96.08
47811;BME280;33575;52.600;7.318;2023-09-12T05:47:12;101070.19;;;20.98;96.00
47811;BME280;33575;52.600;7.318;2023-09-12T05:49:43;101069.12;;;20.85;97.26
47811;BME280;33575;52.600;7.318;2023-09-12T05:52:14;101070.09;;;20.78;97.25
47811;BME280;33575;52.600;7.318;2023-09-12T05:54:44;101070.87;;;20.78;96.94
47811;BME280;33575;52.600;7.318;2023-09-12T05:57:14;101073.17;;;20.81;96.73
47811;BME280;33575;52.600;7.318;2023-09-12T05:59:45;101071.24;;;20.79;97.07
47811;BME280;33575;52.600;7.318;2023-09-12T06:02:15;101071.24;;;20.76;96.74
47811;BME280;33575;52.600;7.318;2023-09-12T06:04:46;101076.36;;;20.79;96.45
47811;BME280;33575;52.600;7.318;2023-09-12T06:07:17;101082.86;;;20.84;95.90
47811;BME280;33575;52.600;7.318;2023-09-12T06:09:47;101090.34;;;20.86;95.60
47811;BME280;33575;52.600;7.318;2023-09-12T06:12:18;101094.67;;;20.86;95.81
47811;BME280;33575;52.600;7.318;2023-09-12T06:14:48;101091.86;;;20.89;95.92
47811;BME280;33575;52.600;7.318;2023-09-12T06:17:18;101087.27;;;20.93;95.63
47811;BME280;33575;52.600;7.318;2023-09-12T06:19:49;101083.56;;;20.97;95.53
47811;BME280;33575;52.600;7.318;2023-09-12T06:22:20;101076.97;;;21.00;95.53
47811;BME280;33575;52.600;7.318;2023-09-12T06:24:50;101073.49;;;21.01;95.81
47811;BME280;33575;52.600;7.318;2023-09-12T06:27:21;101072.56;;;21.00;95.81
47811;BME280;33575;52.600;7.318;2023-09-12T06:29:51;101070.99;;;20.99;95.79
47811;BME280;33575;52.600;7.318;2023-09-12T06:32:21;101074.20;;;21.00;95.58
47811;BME280;33575;52.600;7.318;2023-09-12T06:34:52;101070.96;;;21.00;95.84
47811;BME280;33575;52.600;7.318;2023-09-12T06:37:22;101063.92;;;20.92;96.86
47811;BME280;33575;52.600;7.318;2023-09-12T06:39:53;101056.00;;;20.79;98.01
47811;BME280;33575;52.600;7.318;2023-09-12T06:42:24;101054.85;;;20.66;98.03
47811;BME280;33575;52.600;7.318;2023-09-12T06:44:54;101060.53;;;20.58;98.48
47811;BME280;33575;52.600;7.318;2023-09-12T06:47:25;101063.10;;;20.61;98.16
47811;BME280;33575;52.600;7.318;2023-09-12T06:49:57;101071.01;;;20.65;97.95
47811;BME280;33575;52.600;7.318;2023-09-12T06:52:26;101077.02;;;20.64;98.10
47811;BME280;33575;52.600;7.318;2023-09-12T06:54:57;101081.15;;;20.63;97.76
47811;BME280;33575;52.600;7.318;2023-09-12T06:57:27;101082.30;;;20.65;97.70
47811;BME280;33575;52.600;7.318;2023-09-12T06:59:58;101086.91;;;20.61;97.62
47811;BME280;33575;52.600;7.318;2023-09-12T07:02:28;101092.92;;;20.59;98.45
47811;BME280;33575;52.600;7.318;2023-09-12T07:04:58;101089.49;;;20.58;98.12
47811;BME280;33575;52.600;7.318;2023-09-12T07:07:29;101086.17;;;20.55;98.22
47811;BME280;33575;52.600;7.318;2023-09-12T07:10:05;101096.47;;;20.48;98.39
47811;BME280;33575;52.600;7.318;2023-09-12T07:12:30;101096.08;;;20.40;98.53
47811;BME280;33575;52.600;7.318;2023-09-12T07:15:00;101098.70;;;20.44;98.58
47811;BME280;33575;52.600;7.318;2023-09-12T07:17:30;101103.59;;;20.45;98.38
47811;BME280;33575;52.600;7.318;2023-09-12T07:20:00;101110.82;;;20.50;98.03
47811;BME280;33575;52.600;7.318;2023-09-12T07:22:31;101114.33;;;20.54;98.63
47811;BME280;33575;52.600;7.318;2023-09-12T07:25:01;101118.12;;;20.59;98.39
47811;BME280;33575;52.600;7.318;2023-09-12T07:27:31;101124.06;;;20.66;97.89
47811;BME280;33575;52.600;7.318;2023-09-12T07:30:02;101131.11;;;20.72;97.58
47811;BME280;33575;52.600;7.318;2023-09-12T07:32:32;101135.03;;;20.78;97.81
47811;BME280;33575;52.600;7.318;2023-09-12T07:35:02;101134.20;;;20.83;97.58
47811;BME280;33575;52.600;7.318;2023-09-12T07:37:33;101130.91;;;20.80;97.96
47811;BME280;33575;52.600;7.318;2023-09-12T07:40:04;101135.12;;;20.85;97.45
47811;BME280;33575;52.600;7.318;2023-09-12T07:42:34;101139.67;;;20.88;97.52
47811;BME280;33575;52.600;7.318;2023-09-12T07:45:05;101145.28;;;20.87;97.54
47811;BME280;33575;52.600;7.318;2023-09-12T07:47:36;101150.95;;;20.87;97.24
47811;BME280;33575;52.600;7.318;2023-09-12T07:50:07;101159.77;;;20.91;97.15
47811;BME280;33575;52.600;7.318;2023-09-12T07:52:37;101171.75;;;20.98;97.03
47811;BME280;33575;52.600;7.318;2023-09-12T07:55:08;101179.86;;;21.02;96.92
47811;BME280;33575;52.600;7.318;2023-09-12T07:57:37;101176.59;;;20.94;97.38
47811;BME280;33575;52.600;7.318;2023-09-12T08:00:09;101171.58;;;20.97;97.12
47811;BME280;33575;52.600;7.318;2023-09-12T08:02:39;101173.91;;;21.01;96.90
47811;BME280;33575;52.600;7.318;2023-09-12T08:05:09;101170.26;;;20.99;97.02
47811;BME280;33575;52.600;7.318;2023-09-12T08:07:39;101165.58;;;20.95;97.22
47811;BME280;33575;52.600;7.318;2023-09-12T08:10:09;101156.35;;;20.92;97.36
47811;BME280;33575;52.600;7.318;2023-09-12T08:12:40;101148.55;;;20.92;96.83
47811;BME280;33575;52.600;7.318;2023-09-12T08:15:10;101148.18;;;20.95;96.54
47811;BME280;33575;52.600;7.318;2023-09-12T08:17:40;101144.29;;;20.98;96.80
47811;BME280;33575;52.600;7.318;2023-09-12T08:20:11;101143.92;;;21.03;96.58
47811;BME280;33575;52.600;7.318;2023-09-12T08:22:41;101151.56;;;21.07;96.52
47811;BME280;33575;52.600;7.318;2023-09-12T08:25:12;101153.43;;;21.08;96.40
47811;BME280;33575;52.600;7.318;2023-09-12T08:27:42;101156.52;;;21.10;96.48
47811;BME280;33575;52.600;7.318;2023-09-12T08:30:13;101157.69;;;21.09;96.53
47811;BME280;33575;52.600;7.318;2023-09-12T08:32:43;101151.82;;;21.10;96.30
47811;BME280;33575;52.600;7.318;2023-09-12T08:35:14;101148.52;;;20.97;95.96
47811;BME280;33575;52.600;7.318;2023-09-12T08:37:43;101146.59;;;20.95;96.47
47811;BME280;33575;52.600;7.318;2023-09-12T08:40:15;101148.47;;;20.85;96.05
47811;BME280;33575;52.600;7.318;2023-09-12T08:42:45;101144.43;;;20.86;96.13
47811;BME280;33575;52.600;7.318;2023-09-12T08:45:16;101145.30;;;20.92;96.37
47811;BME280;33575;52.600;7.318;2023-09-12T08:47:50;101153.84;;;20.99;96.27
47811;BME280;33575;52.600;7.318;2023-09-12T08:50:16;101160.11;;;21.03;96.27
47811;BME280;33575;52.600;7.318;2023-09-12T08:52:51;101161.83;;;21.04;95.73
47811;BME280;33575;52.600;7.318;2023-09-12T08:55:17;101161.15;;;21.09;95.68
47811;BME280;33575;52.600;7.318;2023-09-12T08:57:50;101157.45;;;21.09;95.67
47811;BME280;33575;52.600;7.318;2023-09-12T09:00:18;101154.10;;;21.12;95.36
47811;BME280;33575;52.600;7.318;2023-09-12T09:02:48;101146.65;;;21.11;95.34
47811;BME280;33575;52.600;7.318;2023-09-12T09:05:20;101144.40;;;21.10;95.42
47811;BME280;33575;52.600;7.318;2023-09-12T09:07:49;101141.57;;;21.15;95.39
47811;BME280;33575;52.600;7.318;2023-09-12T09:10:25;101137.57;;;21.20;95.27
47811;BME280;33575;52.600;7.318;2023-09-12T09:12:51;101136.22;;;21.24;95.23
47811;BME280;33575;52.600;7.318;2023-09-12T09:15:23;101133.01;;;21.28;95.44
47811;BME280;33575;52.600;7.318;2023-09-12T09:17:52;101132.67;;;21.27;94.88
47811;BME280;33575;52.600;7.318;2023-09-12T09:20:26;101137.36;;;21.19;94.50
47811;BME280;33575;52.600;7.318;2023-09-12T09:22:57;101144.47;;;21.16;94.86
47811;BME280;33575;52.600;7.318;2023-09-12T09:25:23;101145.39;;;21.16;95.04
47811;BME280;33575;52.600;7.318;2023-09-12T09:27:54;101144.77;;;21.21;95.29
47811;BME280;33575;52.600;7.318;2023-09-12T09:32:54;101140.79;;;21.19;94.12
47811;BME280;33575;52.600;7.318;2023-09-12T09:35:24;101138.24;;;21.20;94.52
47811;BME280;33575;52.600;7.318;2023-09-12T09:37:55;101138.91;;;21.24;94.26
47811;BME280;33575;52.600;7.318;2023-09-12T09:40:25;101145.82;;;21.29;94.37
47811;BME280;33575;52.600;7.318;2023-09-12T09:42:59;101148.85;;;21.34;94.51
47811;BME280;33575;52.600;7.318;2023-09-12T09:45:26;101148.20;;;21.41;94.36
47811;BME280;33575;52.600;7.318;2023-09-12T09:47:57;101146.20;;;21.48;94.74
47811;BME280;33575;52.600;7.318;2023-09-12T09:50:26;101145.78;;;21.54;94.96
47811;BME280;33575;52.600;7.318;2023-09-12T09:52:57;101146.33;;;21.52;94.08
47811;BME280;33575;52.600;7.318;2023-09-12T09:55:28;101145.24;;;21.53;94.04
47811;BME280;33575;52.600;7.318;2023-09-12T09:57:58;101142.41;;;21.60;94.28
47811;BME280;33575;52.600;7.318;2023-09-12T10:00:30;101139.81;;;21.69;94.62
47811;BME280;33575;52.600;7.318;2023-09-12T10:03:02;101142.83;;;21.78;93.95
47811;BME280;33575;52.600;7.318;2023-09-12T10:05:32;101141.51;;;21.81;94.13
47811;BME280;33575;52.600;7.318;2023-09-12T10:08:02;101146.26;;;21.87;93.64
47811;BME280;33575;52.600;7.318;2023-09-12T10:10:32;101148.39;;;21.90;93.40
47811;BME280;33575;52.600;7.318;2023-09-12T10:13:03;101152.07;;;21.92;93.93
47811;BME280;33575;52.600;7.318;2023-09-12T10:15:34;101151.10;;;21.96;94.35
47811;BME280;33575;52.600;7.318;2023-09-12T10:18:10;101152.38;;;21.97;95.21
47811;BME280;33575;52.600;7.318;2023-09-12T10:20:40;101149.88;;;22.01;95.06
47811;BME280;33575;52.600;7.318;2023-09-12T10:23:08;101153.50;;;21.96;92.03
47811;BME280;33575;52.600;7.318;2023-09-12T10:25:36;101163.09;;;21.98;94.93
47811;BME280;33575;52.600;7.318;2023-09-12T10:28:06;101168.24;;;22.09;95.01
47811;BME280;33575;52.600;7.318;2023-09-12T10:30:37;101166.99;;;22.22;94.65
47811;BME280;33575;52.600;7.318;2023-09-12T10:33:08;101166.34;;;22.32;95.44
47811;BME280;33575;52.600;7.318;2023-09-12T10:35:38;101169.02;;;22.41;95.33
47811;BME280;33575;52.600;7.318;2023-09-12T10:38:08;101173.02;;;22.47;94.81
47811;BME280;33575;52.600;7.318;2023-09-12T10:40:44;101172.89;;;22.56;96.24
47811;BME280;33575;52.600;7.318;2023-09-12T10:43:11;101175.26;;;22.62;94.79
47811;BME280;33575;52.600;7.318;2023-09-12T10:45:41;101179.63;;;22.69;95.24
47811;BME280;33575;52.600;7.318;2023-09-12T10:48:10;101176.96;;;22.74;93.49
47811;BME280;33575;52.600;7.318;2023-09-12T10:50:41;101175.83;;;22.81;94.32
47811;BME280;33575;52.600;7.318;2023-09-12T10:53:12;101170.61;;;22.84;93.64
47811;BME280;33575;52.600;7.318;2023-09-12T10:55:42;101165.47;;;22.93;94.91
47811;BME280;33575;52.600;7.318;2023-09-12T10:58:12;101160.99;;;23.06;94.57
47811;BME280;33575;52.600;7.318;2023-09-12T11:05:52;101164.90;;;23.18;93.74
47811;BME280;33575;52.600;7.318;2023-09-12T11:08:14;101168.04;;;23.18;93.78
47811;BME280;33575;52.600;7.318;2023-09-12T11:10:44;101173.39;;;23.09;94.09
47811;BME280;33575;52.600;7.318;2023-09-12T11:13:17;101177.19;;;23.07;93.49
47811;BME280;33575;52.600;7.318;2023-09-12T11:18:16;101169.54;;;23.06;91.08
47811;BME280;33575;52.600;7.318;2023-09-12T11:20:52;101170.24;;;23.10;90.89
47811;BME280;33575;52.600;7.318;2023-09-12T11:23:17;101173.25;;;23.11;91.55
47811;BME280;33575;52.600;7.318;2023-09-12T11:25:47;101174.86;;;23.07;91.28
47811;BME280;33575;52.600;7.318;2023-09-12T11:28:19;101178.65;;;23.07;90.52
47811;BME280;33575;52.600;7.318;2023-09-12T11:30:55;101179.58;;;23.14;90.80
47811;BME280;33575;52.600;7.318;2023-09-12T11:33:19;101182.29;;;23.23;90.97
47811;BME280;33575;52.600;7.318;2023-09-12T11:35:52;101183.21;;;23.27;91.68
47811;BME280;33575;52.600;7.318;2023-09-12T11:38:26;101187.16;;;23.25;92.33
47811;BME280;33575;52.600;7.318;2023-09-12T11:40:50;101190.30;;;23.26;92.41
47811;BME280;33575;52.600;7.318;2023-09-12T11:43:22;101186.94;;;23.27;92.69
47811;BME280;33575;52.600;7.318;2023-09-12T11:45:52;101180.29;;;23.32;93.05
47811;BME280;33575;52.600;7.318;2023-09-12T11:48:21;101176.63;;;23.39;92.38
47811;BME280;33575;52.600;7.318;2023-09-12T11:50:53;101171.07;;;23.38;91.79
47811;BME280;33575;52.600;7.318;2023-09-12T11:53:24;101164.58;;;23.39;92.36
47811;BME280;33575;52.600;7.318;2023-09-12T11:55:55;101162.85;;;23.41;91.63
47811;BME280;33575;52.600;7.318;2023-09-12T11:58:24;101158.88;;;23.41;91.58
47811;BME280;33575;52.600;7.318;2023-09-12T12:00:55;101157.08;;;23.40;91.03
47811;BME280;33575;52.600;7.318;2023-09-12T12:03:25;101156.43;;;23.40;90.49
47811;BME280;33575;52.600;7.318;2023-09-12T12:05:55;101158.23;;;23.40;89.78
47811;BME280;33575;52.600;7.318;2023-09-12T12:08:27;101160.04;;;23.34;89.75
47811;BME280;33575;52.600;7.318;2023-09-12T12:10:55;101162.33;;;23.32;90.32
47811;BME280;33575;52.600;7.318;2023-09-12T12:13:25;101156.74;;;23.29;87.93
47811;BME280;33575;52.600;7.318;2023-09-12T12:15:56;101152.62;;;23.26;88.13
47811;BME280;33575;52.600;7.318;2023-09-12T12:18:27;101149.60;;;23.25;88.79
47811;BME280;33575;52.600;7.318;2023-09-12T12:20:57;101146.95;;;23.32;88.90
47811;BME280;33575;52.600;7.318;2023-09-12T12:23:27;101144.47;;;23.31;86.75
47811;BME280;33575;52.600;7.318;2023-09-12T12:26:03;101142.41;;;23.40;87.86
47811;BME280;33575;52.600;7.318;2023-09-12T12:28:28;101136.86;;;23.46;89.11
47811;BME280;33575;52.600;7.318;2023-09-12T12:30:59;101127.93;;;23.49;89.00
47811;BME280;33575;52.600;7.318;2023-09-12T12:33:34;101126.80;;;23.48;89.14
47811;BME280;33575;52.600;7.318;2023-09-12T12:36:01;101121.92;;;23.46;88.27
47811;BME280;33575;52.600;7.318;2023-09-12T12:38:33;101124.33;;;23.47;86.39
47811;BME280;33575;52.600;7.318;2023-09-12T12:41:01;101119.20;;;23.49;86.24
47811;BME280;33575;52.600;7.318;2023-09-12T12:43:32;101111.65;;;23.60;87.77
47811;BME280;33575;52.600;7.318;2023-09-12T12:46:03;101107.32;;;23.63;87.87
47811;BME280;33575;52.600;7.318;2023-09-12T12:48:35;101098.72;;;23.70;87.49
47811;BME280;33575;52.600;7.318;2023-09-12T12:51:14;101089.62;;;23.79;88.16
47811;BME280;33575;52.600;7.318;2023-09-12T12:53:41;101088.80;;;23.80;87.46
47811;BME280;33575;52.600;7.318;2023-09-12T12:56:05;101087.61;;;23.81;86.87
47811;BME280;33575;52.600;7.318;2023-09-12T12:58:36;101085.69;;;23.83;86.36
47811;BME280;33575;52.600;7.318;2023-09-12T13:01:06;101089.15;;;23.40;82.53
47811;BME280;33575;52.600;7.318;2023-09-12T13:03:36;101089.27;;;23.58;86.20
47811;BME280;33575;52.600;7.318;2023-09-12T13:06:06;101087.48;;;23.53;86.03
47811;BME280;33575;52.600;7.318;2023-09-12T13:08:37;101086.90;;;23.37;83.50
47811;BME280;33575;52.600;7.318;2023-09-12T13:11:08;101087.82;;;23.41;84.07
47811;BME280;33575;52.600;7.318;2023-09-12T13:13:38;101088.26;;;23.54;86.01
47811;BME280;33575;52.600;7.318;2023-09-12T13:16:12;101082.36;;;23.61;85.85